CheckWX is a tool to help pilots better visualize weather data.  It is not intended as a substitute for an official pre-flight weather briefing.

08:11:36 UTC

SCTN METAR
Chaitén Airport
Chaiten, Chile
Current

12 mins ago

SCTN 230800Z AUTO 13005KT 9999 SCT018 06/06 Q1020
Observed
Apr-23 @ 08:00 UTC
Wind
  • 130° at 5 KTS
Visibility
10,000+ meters
Flight Rules
VFR
Cloud Levels
  • Scattered at 1,800' AGL
Temperature
C / 43°F
Dewpoint
C / 43°F
Humidity
100%
Altimeter
30.12" Hg
Pressure
1019.92 hPa
Previous

1 hour ago

SCTN 230700Z AUTO VRB01KT 9999 FEW020 06/06 Q1020
Observed
Apr-23 @ 07:00 UTC
Wind
  • Variable at 1 KTS
Visibility
10,000+ meters
Flight Rules
VFR
Cloud Levels
  • Few at 2,000' AGL
Temperature
C / 43°F
Dewpoint
C / 43°F
Humidity
100%
Altimeter
30.12" Hg
Pressure
1019.92 hPa
Previous

2 hours ago

SCTN 230600Z AUTO 11005KT CAVOK 07/06 Q1021
Observed
Apr-23 @ 06:00 UTC
Wind
  • 110° at 5 KTS
Visibility
10,000+ meters
Flight Rules
VFR
Cloud Levels
  • Clear skies
Temperature
C / 45°F
Dewpoint
C / 43°F
Humidity
93%
Altimeter
30.15" Hg
Pressure
1020.92 hPa